sensor_id;sensor_type;location;lat;lon;timestamp;pressure;altitude;pressure_sealevel;temperature;humidity
29461;BME280;16428;47.836;35.106;2023-03-23T00:01:10;101397.88;;;7.13;100.00
29461;BME280;16428;47.836;35.106;2023-03-23T00:03:37;101399.53;;;7.04;100.00
29461;BME280;16428;47.836;35.106;2023-03-23T00:06:04;101399.53;;;6.85;100.00
29461;BME280;16428;47.836;35.106;2023-03-23T00:08:36;101396.09;;;6.73;100.00
29461;BME280;16428;47.836;35.106;2023-03-23T00:11:18;101406.94;;;6.81;100.00
29461;BME280;16428;47.836;35.106;2023-03-23T00:13:50;101401.75;;;6.80;100.00
29461;BME280;16428;47.836;35.106;2023-03-23T00:16:22;101406.41;;;6.87;100.00
29461;BME280;16428;47.836;35.106;2023-03-23T00:19:00;101399.22;;;6.88;100.00
29461;BME280;16428;47.836;35.106;2023-03-23T00:21:29;101398.66;;;6.84;100.00
29461;BME280;16428;47.836;35.106;2023-03-23T00:24:01;101398.75;;;6.73;100.00
29461;BME280;16428;47.836;35.106;2023-03-23T00:26:28;101402.44;;;6.82;100.00
29461;BME280;16428;47.836;35.106;2023-03-23T00:28:57;101402.59;;;6.80;100.00
29461;BME280;16428;47.836;35.106;2023-03-23T00:31:26;101399.66;;;6.83;100.00
29461;BME280;16428;47.836;35.106;2023-03-23T00:34:03;101396.53;;;6.78;100.00
29461;BME280;16428;47.836;35.106;2023-03-23T00:36:34;101400.56;;;6.72;100.00
29461;BME280;16428;47.836;35.106;2023-03-23T00:39:02;101394.63;;;6.59;100.00
29461;BME280;16428;47.836;35.106;2023-03-23T00:41:30;101391.84;;;6.61;100.00
29461;BME280;16428;47.836;35.106;2023-03-23T00:43:59;101395.31;;;6.52;100.00
29461;BME280;16428;47.836;35.106;2023-03-23T00:46:31;101390.69;;;6.54;100.00
29461;BME280;16428;47.836;35.106;2023-03-23T00:48:57;101395.22;;;6.63;100.00
29461;BME280;16428;47.836;35.106;2023-03-23T00:51:25;101388.31;;;6.60;100.00
29461;BME280;16428;47.836;35.106;2023-03-23T00:53:51;101389.63;;;6.66;100.00
29461;BME280;16428;47.836;35.106;2023-03-23T00:56:18;101379.47;;;6.60;100.00
29461;BME280;16428;47.836;35.106;2023-03-23T00:58:46;101387.31;;;6.52;100.00
29461;BME280;16428;47.836;35.106;2023-03-23T01:01:12;101385.16;;;6.46;100.00
29461;BME280;16428;47.836;35.106;2023-03-23T01:03:39;101388.75;;;6.56;100.00
29461;BME280;16428;47.836;35.106;2023-03-23T01:06:08;101385.34;;;6.54;100.00
29461;BME280;16428;47.836;35.106;2023-03-23T01:08:42;101386.97;;;6.35;100.00
29461;BME280;16428;47.836;35.106;2023-03-23T01:11:14;101390.00;;;6.31;100.00
29461;BME280;16428;47.836;35.106;2023-03-23T01:13:42;101376.88;;;6.39;100.00
29461;BME280;16428;47.836;35.106;2023-03-23T01:16:09;101382.13;;;6.29;100.00
29461;BME280;16428;47.836;35.106;2023-03-23T01:18:37;101382.28;;;6.28;100.00
29461;BME280;16428;47.836;35.106;2023-03-23T01:21:12;101381.78;;;6.13;100.00
29461;BME280;16428;47.836;35.106;2023-03-23T01:23:39;101372.38;;;6.09;100.00
29461;BME280;16428;47.836;35.106;2023-03-23T01:26:10;101369.25;;;6.04;100.00
29461;BME280;16428;47.836;35.106;2023-03-23T01:28:38;101373.97;;;6.21;100.00
29461;BME280;16428;47.836;35.106;2023-03-23T01:31:10;101384.03;;;6.39;100.00
29461;BME280;16428;47.836;35.106;2023-03-23T01:33:39;101374.34;;;6.38;100.00
29461;BME280;16428;47.836;35.106;2023-03-23T01:36:12;101370.06;;;6.25;100.00
29461;BME280;16428;47.836;35.106;2023-03-23T01:38:39;101371.88;;;6.25;100.00
29461;BME280;16428;47.836;35.106;2023-03-23T01:41:07;101379.22;;;6.32;100.00
29461;BME280;16428;47.836;35.106;2023-03-23T01:43:33;101382.41;;;6.26;100.00
29461;BME280;16428;47.836;35.106;2023-03-23T01:46:00;101386.50;;;6.30;100.00
29461;BME280;16428;47.836;35.106;2023-03-23T01:51:08;101380.78;;;6.35;100.00
29461;BME280;16428;47.836;35.106;2023-03-23T01:53:45;101387.25;;;6.42;100.00
29461;BME280;16428;47.836;35.106;2023-03-23T01:56:14;101390.88;;;6.31;100.00
29461;BME280;16428;47.836;35.106;2023-03-23T01:58:42;101386.38;;;6.32;100.00
29461;BME280;16428;47.836;35.106;2023-03-23T02:01:12;101393.63;;;6.51;100.00
29461;BME280;16428;47.836;35.106;2023-03-23T02:03:43;101385.84;;;6.38;100.00
29461;BME280;16428;47.836;35.106;2023-03-23T02:06:12;101389.97;;;6.21;100.00
29461;BME280;16428;47.836;35.106;2023-03-23T02:08:41;101385.53;;;6.31;100.00
29461;BME280;16428;47.836;35.106;2023-03-23T02:11:18;101388.91;;;6.33;100.00
29461;BME280;16428;47.836;35.106;2023-03-23T02:13:47;101385.53;;;6.31;100.00
29461;BME280;16428;47.836;35.106;2023-03-23T02:30:23;101395.19;;;6.23;100.00
29461;BME280;16428;47.836;35.106;2023-03-23T02:36:41;101386.63;;;6.29;100.00
29461;BME280;16428;47.836;35.106;2023-03-23T02:38:53;101395.31;;;6.21;100.00
29461;BME280;16428;47.836;35.106;2023-03-23T02:41:26;101389.91;;;6.42;100.00
29461;BME280;16428;47.836;35.106;2023-03-23T02:43:54;101389.44;;;6.27;100.00
29461;BME280;16428;47.836;35.106;2023-03-23T02:46:22;101386.38;;;6.32;100.00
29461;BME280;16428;47.836;35.106;2023-03-23T02:48:50;101393.91;;;6.27;100.00
29461;BME280;16428;47.836;35.106;2023-03-23T02:51:19;101388.31;;;6.30;100.00
29461;BME280;16428;47.836;35.106;2023-03-23T02:53:50;101401.50;;;6.22;100.00
29461;BME280;16428;47.836;35.106;2023-03-23T02:56:18;101402.56;;;6.10;100.00
29461;BME280;16428;47.836;35.106;2023-03-23T02:58:46;101397.00;;;6.22;100.00
29461;BME280;16428;47.836;35.106;2023-03-23T03:03:57;101386.81;;;6.37;100.00
29461;BME280;16428;47.836;35.106;2023-03-23T03:06:34;101388.66;;;6.37;100.00
29461;BME280;16428;47.836;35.106;2023-03-23T03:09:09;101390.94;;;6.41;100.00
29461;BME280;16428;47.836;35.106;2023-03-23T03:11:46;101392.47;;;6.44;100.00
29461;BME280;16428;47.836;35.106;2023-03-23T03:14:26;101385.25;;;6.34;100.00
29461;BME280;16428;47.836;35.106;2023-03-23T03:19:42;101381.38;;;6.39;100.00
29461;BME280;16428;47.836;35.106;2023-03-23T03:22:11;101382.00;;;6.31;100.00
29461;BME280;16428;47.836;35.106;2023-03-23T03:24:43;101387.72;;;6.26;100.00
29461;BME280;16428;47.836;35.106;2023-03-23T03:27:14;101385.63;;;6.20;100.00
29461;BME280;16428;47.836;35.106;2023-03-23T03:29:46;101395.06;;;6.24;100.00
29461;BME280;16428;47.836;35.106;2023-03-23T03:32:17;101387.44;;;6.20;100.00
29461;BME280;16428;47.836;35.106;2023-03-23T03:34:44;101386.34;;;6.22;100.00
29461;BME280;16428;47.836;35.106;2023-03-23T03:37:11;101388.59;;;6.27;100.00
29461;BME280;16428;47.836;35.106;2023-03-23T03:39:42;101395.91;;;6.25;100.00
29461;BME280;16428;47.836;35.106;2023-03-23T03:42:08;101398.97;;;6.20;100.00
29461;BME280;16428;47.836;35.106;2023-03-23T03:44:40;101394.97;;;6.15;100.00
29461;BME280;16428;47.836;35.106;2023-03-23T03:47:07;101393.88;;;6.17;100.00
29461;BME280;16428;47.836;35.106;2023-03-23T03:49:33;101390.81;;;6.22;100.00
29461;BME280;16428;47.836;35.106;2023-03-23T03:52:01;101389.72;;;6.24;100.00
29461;BME280;16428;47.836;35.106;2023-03-23T03:54:28;101392.38;;;6.24;100.00
29461;BME280;16428;47.836;35.106;2023-03-23T03:57:00;101395.56;;;6.18;100.00
29461;BME280;16428;47.836;35.106;2023-03-23T03:59:27;101404.88;;;6.24;100.00
29461;BME280;16428;47.836;35.106;2023-03-23T04:01:53;101398.97;;;6.20;100.00
29461;BME280;16428;47.836;35.106;2023-03-23T04:04:20;101397.66;;;6.15;100.00
29461;BME280;16428;47.836;35.106;2023-03-23T04:06:48;101404.94;;;6.13;100.00
29461;BME280;16428;47.836;35.106;2023-03-23T04:09:15;101400.19;;;6.16;100.00
29461;BME280;16428;47.836;35.106;2023-03-23T04:11:41;101402.84;;;6.16;100.00
29461;BME280;16428;47.836;35.106;2023-03-23T04:14:07;101406.50;;;6.15;100.00
29461;BME280;16428;47.836;35.106;2023-03-23T04:16:33;101412.03;;;6.23;100.00
29461;BME280;16428;47.836;35.106;2023-03-23T04:19:00;101412.59;;;6.27;100.00
29461;BME280;16428;47.836;35.106;2023-03-23T04:21:27;101416.69;;;6.31;100.00
29461;BME280;16428;47.836;35.106;2023-03-23T04:23:57;101414.16;;;6.29;100.00
29461;BME280;16428;47.836;35.106;2023-03-23T04:26:27;101414.63;;;6.34;100.00
29461;BME280;16428;47.836;35.106;2023-03-23T04:28:57;101411.69;;;6.38;100.00
29461;BME280;16428;47.836;35.106;2023-03-23T04:31:25;101410.84;;;6.37;100.00
29461;BME280;16428;47.836;35.106;2023-03-23T04:33:52;101413.25;;;6.40;100.00
29461;BME280;16428;47.836;35.106;2023-03-23T04:36:20;101414.53;;;6.46;100.00
29461;BME280;16428;47.836;35.106;2023-03-23T04:38:48;101420.56;;;6.48;100.00
29461;BME280;16428;47.836;35.106;2023-03-23T04:41:16;101421.56;;;6.47;100.00
29461;BME280;16428;47.836;35.106;2023-03-23T04:43:43;101423.22;;;6.38;100.00
29461;BME280;16428;47.836;35.106;2023-03-23T04:46:09;101428.31;;;6.51;100.00
29461;BME280;16428;47.836;35.106;2023-03-23T04:48:36;101423.50;;;6.45;100.00
29461;BME280;16428;47.836;35.106;2023-03-23T04:51:05;101433.53;;;6.52;100.00
29461;BME280;16428;47.836;35.106;2023-03-23T04:53:37;101433.44;;;6.63;100.00
29461;BME280;16428;47.836;35.106;2023-03-23T04:56:04;101431.47;;;6.65;100.00
29461;BME280;16428;47.836;35.106;2023-03-23T04:58:31;101440.34;;;6.66;100.00
29461;BME280;16428;47.836;35.106;2023-03-23T05:01:01;101438.81;;;6.73;100.00
29461;BME280;16428;47.836;35.106;2023-03-23T05:03:28;101442.31;;;6.74;100.00
29461;BME280;16428;47.836;35.106;2023-03-23T05:05:56;101442.66;;;6.80;100.00
29461;BME280;16428;47.836;35.106;2023-03-23T05:08:23;101443.97;;;6.95;100.00
29461;BME280;16428;47.836;35.106;2023-03-23T05:10:55;101448.47;;;7.04;100.00
29461;BME280;16428;47.836;35.106;2023-03-23T05:13:29;101450.22;;;7.15;100.00
29461;BME280;16428;47.836;35.106;2023-03-23T05:15:56;101453.56;;;7.07;100.00
29461;BME280;16428;47.836;35.106;2023-03-23T05:18:23;101449.38;;;7.15;100.00
29461;BME280;16428;47.836;35.106;2023-03-23T05:21:00;101451.47;;;7.21;100.00
29461;BME280;16428;47.836;35.106;2023-03-23T05:23:28;101453.34;;;7.30;100.00
29461;BME280;16428;47.836;35.106;2023-03-23T05:25:57;101451.19;;;7.24;100.00
29461;BME280;16428;47.836;35.106;2023-03-23T05:28:30;101450.81;;;7.38;100.00
29461;BME280;16428;47.836;35.106;2023-03-23T05:30:56;101452.53;;;7.58;100.00
29461;BME280;16428;47.836;35.106;2023-03-23T05:33:26;101452.25;;;7.61;100.00
29461;BME280;16428;47.836;35.106;2023-03-23T05:35:52;101460.13;;;7.72;100.00
29461;BME280;16428;47.836;35.106;2023-03-23T05:38:19;101454.94;;;7.90;100.00
29461;BME280;16428;47.836;35.106;2023-03-23T05:40:46;101453.09;;;7.91;100.00
29461;BME280;16428;47.836;35.106;2023-03-23T05:43:13;101460.97;;;8.02;100.00
29461;BME280;16428;47.836;35.106;2023-03-23T05:45:41;101455.59;;;8.11;100.00
29461;BME280;16428;47.836;35.106;2023-03-23T05:48:07;101463.75;;;8.10;100.00
29461;BME280;16428;47.836;35.106;2023-03-23T05:50:35;101464.91;;;8.17;100.00
29461;BME280;16428;47.836;35.106;2023-03-23T05:53:02;101463.75;;;8.29;100.00
29461;BME280;16428;47.836;35.106;2023-03-23T05:55:30;101465.75;;;8.37;100.00
29461;BME280;16428;47.836;35.106;2023-03-23T05:57:58;101476.69;;;8.43;100.00
29461;BME280;16428;47.836;35.106;2023-03-23T06:00:25;101471.06;;;8.27;100.00
29461;BME280;16428;47.836;35.106;2023-03-23T06:02:56;101475.31;;;8.20;100.00
29461;BME280;16428;47.836;35.106;2023-03-23T06:05:27;101472.91;;;8.27;100.00
29461;BME280;16428;47.836;35.106;2023-03-23T06:07:55;101475.59;;;8.36;100.00
29461;BME280;16428;47.836;35.106;2023-03-23T06:10:21;101480.03;;;8.65;100.00
29461;BME280;16428;47.836;35.106;2023-03-23T06:12:49;101479.22;;;8.55;100.00
29461;BME280;16428;47.836;35.106;2023-03-23T06:15:17;101484.69;;;8.63;100.00
29461;BME280;16428;47.836;35.106;2023-03-23T06:17:46;101479.84;;;8.86;100.00
29461;BME280;16428;47.836;35.106;2023-03-23T06:20:13;101480.72;;;9.04;100.00
29461;BME280;16428;47.836;35.106;2023-03-23T06:22:39;101486.91;;;9.14;100.00
29461;BME280;16428;47.836;35.106;2023-03-23T06:25:09;101485.91;;;9.33;100.00
29461;BME280;16428;47.836;35.106;2023-03-23T06:27:37;101485.59;;;9.45;100.00
29461;BME280;16428;47.836;35.106;2023-03-23T06:30:05;101489.97;;;9.64;100.00
29461;BME280;16428;47.836;35.106;2023-03-23T06:32:37;101491.22;;;9.87;100.00
29461;BME280;16428;47.836;35.106;2023-03-23T06:35:04;101491.75;;;9.73;100.00
29461;BME280;16428;47.836;35.106;2023-03-23T06:37:31;101497.03;;;10.01;100.00
29461;BME280;16428;47.836;35.106;2023-03-23T06:39:57;101484.66;;;10.26;100.00
29461;BME280;16428;47.836;35.106;2023-03-23T06:42:24;101486.44;;;10.17;99.51
29461;BME280;16428;47.836;35.106;2023-03-23T06:44:56;101489.28;;;10.33;98.40
29461;BME280;16428;47.836;35.106;2023-03-23T06:47:24;101491.34;;;10.65;97.21
29461;BME280;16428;47.836;35.106;2023-03-23T06:49:50;101493.88;;;10.67;96.36
29461;BME280;16428;47.836;35.106;2023-03-23T06:52:17;101502.69;;;10.85;95.67
29461;BME280;16428;47.836;35.106;2023-03-23T06:54:43;101504.06;;;10.89;95.41
29461;BME280;16428;47.836;35.106;2023-03-23T06:57:12;101489.38;;;11.09;95.05
29461;BME280;16428;47.836;35.106;2023-03-23T06:59:39;101493.16;;;11.24;96.49
29461;BME280;16428;47.836;35.106;2023-03-23T07:02:05;101491.88;;;11.45;93.53
29461;BME280;16428;47.836;35.106;2023-03-23T07:04:32;101492.56;;;11.55;92.92
29461;BME280;16428;47.836;35.106;2023-03-23T07:06:59;101489.47;;;11.84;91.43
29461;BME280;16428;47.836;35.106;2023-03-23T07:09:26;101488.63;;;11.83;92.52
29461;BME280;16428;47.836;35.106;2023-03-23T07:11:52;101491.31;;;11.83;91.69
29461;BME280;16428;47.836;35.106;2023-03-23T07:14:19;101496.38;;;12.11;89.75
29461;BME280;16428;47.836;35.106;2023-03-23T07:16:53;101493.00;;;12.25;87.86
29461;BME280;16428;47.836;35.106;2023-03-23T07:19:19;101499.72;;;12.53;86.16
29461;BME280;16428;47.836;35.106;2023-03-23T07:21:46;101491.31;;;12.24;85.41
29461;BME280;16428;47.836;35.106;2023-03-23T07:24:12;101491.63;;;12.53;85.28
29461;BME280;16428;47.836;35.106;2023-03-23T07:26:43;101489.63;;;12.39;86.28
29461;BME280;16428;47.836;35.106;2023-03-23T07:29:12;101490.13;;;12.67;86.42
29461;BME280;16428;47.836;35.106;2023-03-23T07:31:39;101482.69;;;12.77;84.76
29461;BME280;16428;47.836;35.106;2023-03-23T07:34:06;101492.28;;;12.80;83.77
29461;BME280;16428;47.836;35.106;2023-03-23T07:36:33;101495.78;;;12.88;84.52
29461;BME280;16428;47.836;35.106;2023-03-23T07:39:04;101493.91;;;12.89;83.51
29461;BME280;16428;47.836;35.106;2023-03-23T07:41:34;101486.09;;;13.10;82.97
29461;BME280;16428;47.836;35.106;2023-03-23T07:44:01;101488.06;;;13.32;83.59
29461;BME280;16428;47.836;35.106;2023-03-23T07:46:28;101494.59;;;13.69;81.85
29461;BME280;16428;47.836;35.106;2023-03-23T07:48:54;101489.09;;;13.85;82.34
29461;BME280;16428;47.836;35.106;2023-03-23T07:51:21;101486.69;;;13.90;78.40
29461;BME280;16428;47.836;35.106;2023-03-23T07:53:49;101490.88;;;13.93;78.86
29461;BME280;16428;47.836;35.106;2023-03-23T07:56:16;101493.88;;;14.21;77.22
29461;BME280;16428;47.836;35.106;2023-03-23T07:58:46;101484.88;;;14.28;77.43
29461;BME280;16428;47.836;35.106;2023-03-23T08:01:12;101480.59;;;14.71;76.12
29461;BME280;16428;47.836;35.106;2023-03-23T08:03:39;101484.50;;;14.69;75.35
29461;BME280;16428;47.836;35.106;2023-03-23T08:06:06;101483.31;;;14.86;74.87
29461;BME280;16428;47.836;35.106;2023-03-23T08:08:33;101481.44;;;14.87;74.64
29461;BME280;16428;47.836;35.106;2023-03-23T08:11:01;101482.25;;;15.31;74.59
29461;BME280;16428;47.836;35.106;2023-03-23T08:13:29;101474.06;;;15.61;72.76
29461;BME280;16428;47.836;35.106;2023-03-23T08:15:56;101472.22;;;15.61;72.04
29461;BME280;16428;47.836;35.106;2023-03-23T08:18:22;101474.50;;;15.79;70.97
29461;BME280;16428;47.836;35.106;2023-03-23T08:20:49;101475.84;;;15.90;70.23
29461;BME280;16428;47.836;35.106;2023-03-23T08:23:16;101476.16;;;15.80;71.18
29461;BME280;16428;47.836;35.106;2023-03-23T08:25:42;101470.88;;;15.93;70.48
29461;BME280;16428;47.836;35.106;2023-03-23T08:28:09;101467.78;;;16.17;70.55
29461;BME280;16428;47.836;35.106;2023-03-23T08:30:35;101470.00;;;16.35;69.40
29461;BME280;16428;47.836;35.106;2023-03-23T08:33:08;101471.78;;;16.00;69.85
29461;BME280;16428;47.836;35.106;2023-03-23T08:35:36;101471.56;;;16.23;69.09
29461;BME280;16428;47.836;35.106;2023-03-23T08:38:02;101465.16;;;16.03;68.76
29461;BME280;16428;47.836;35.106;2023-03-23T08:40:29;101468.94;;;16.58;69.83
29461;BME280;16428;47.836;35.106;2023-03-23T08:42:55;101461.47;;;16.94;66.00
29461;BME280;16428;47.836;35.106;2023-03-23T08:45:24;101452.56;;;17.07;67.81
29461;BME280;16428;47.836;35.106;2023-03-23T08:47:51;101447.91;;;17.01;65.77
29461;BME280;16428;47.836;35.106;2023-03-23T08:50:27;101453.53;;;17.40;65.29
29461;BME280;16428;47.836;35.106;2023-03-23T08:52:54;101443.91;;;17.44;64.08
29461;BME280;16428;47.836;35.106;2023-03-23T08:55:21;101447.38;;;17.79;61.81
29461;BME280;16428;47.836;35.106;2023-03-23T08:57:51;101446.56;;;17.99;62.55
29461;BME280;16428;47.836;35.106;2023-03-23T09:00:19;101446.50;;;17.72;62.37
29461;BME280;16428;47.836;35.106;2023-03-23T09:02:50;101442.38;;;17.96;62.33
29461;BME280;16428;47.836;35.106;2023-03-23T09:05:19;101448.25;;;18.06;61.81
29461;BME280;16428;47.836;35.106;2023-03-23T09:07:49;101440.69;;;18.74;60.27
29461;BME280;16428;47.836;35.106;2023-03-23T09:10:18;101439.66;;;17.96;61.14
29461;BME280;16428;47.836;35.106;2023-03-23T09:12:46;101430.69;;;18.61;59.73
29461;BME280;16428;47.836;35.106;2023-03-23T09:15:15;101428.09;;;18.86;59.28
29461;BME280;16428;47.836;35.106;2023-03-23T09:17:46;101427.28;;;18.66;58.76
29461;BME280;16428;47.836;35.106;2023-03-23T09:20:15;101427.19;;;18.99;58.24
29461;BME280;16428;47.836;35.106;2023-03-23T09:22:54;101421.13;;;19.04;55.97
29461;BME280;16428;47.836;35.106;2023-03-23T09:25:25;101421.19;;;19.35;55.23
29461;BME280;16428;47.836;35.106;2023-03-23T09:27:55;101416.59;;;19.29;55.32
29461;BME280;16428;47.836;35.106;2023-03-23T09:30:26;101419.09;;;19.30;53.17
29461;BME280;16428;47.836;35.106;2023-03-23T09:32:54;101407.16;;;18.87;54.30
29461;BME280;16428;47.836;35.106;2023-03-23T09:35:22;101402.41;;;19.20;54.22
29461;BME280;16428;47.836;35.106;2023-03-23T09:37:50;101401.06;;;19.36;53.57
29461;BME280;16428;47.836;35.106;2023-03-23T09:40:23;101400.16;;;19.42;53.42
29461;BME280;16428;47.836;35.106;2023-03-23T09:43:16;101402.06;;;19.04;52.91
29461;BME280;16428;47.836;35.106;2023-03-23T09:48:56;101393.38;;;19.64;51.13
29461;BME280;16428;47.836;35.106;2023-03-23T09:56:44;101400.19;;;20.73;47.90
29461;BME280;16428;47.836;35.106;2023-03-23T10:00:30;101394.63;;;20.43;48.49
29461;BME280;16428;47.836;35.106;2023-03-23T10:05:35;101381.06;;;20.73;46.70
29461;BME280;16428;47.836;35.106;2023-03-23T10:08:11;101392.66;;;20.50;47.24
29461;BME280;16428;47.836;35.106;2023-03-23T10:16:11;101386.97;;;21.06;44.70
29461;BME280;16428;47.836;35.106;2023-03-23T10:18:51;101385.13;;;21.19;44.87
29461;BME280;16428;47.836;35.106;2023-03-23T10:21:22;101384.31;;;21.48;44.04
29461;BME280;16428;47.836;35.106;2023-03-23T10:26:31;101370.47;;;21.73;43.36
29461;BME280;16428;47.836;35.106;2023-03-23T10:29:16;101362.53;;;21.41;43.60
29461;BME280;16428;47.836;35.106;2023-03-23T10:31:49;101363.41;;;21.24;46.70
29461;BME280;16428;47.836;35.106;2023-03-23T10:37:16;101355.97;;;21.13;44.11
29461;BME280;16428;47.836;35.106;2023-03-23T10:39:46;101352.34;;;21.19;44.89
29461;BME280;16428;47.836;35.106;2023-03-23T10:42:39;101347.34;;;21.46;43.82
29461;BME280;16428;47.836;35.106;2023-03-23T10:45:29;101350.44;;;21.49;43.44
29461;BME280;16428;47.836;35.106;2023-03-23T10:48:13;101347.50;;;21.62;43.04
29461;BME280;16428;47.836;35.106;2023-03-23T10:50:42;101342.75;;;21.28;43.23
29461;BME280;16428;47.836;35.106;2023-03-23T10:53:37;101341.09;;;21.08;43.62
29461;BME280;16428;47.836;35.106;2023-03-23T10:56:21;101337.31;;;21.39;42.94
29461;BME280;16428;47.836;35.106;2023-03-23T10:58:48;101342.03;;;21.02;44.31
29461;BME280;16428;47.836;35.106;2023-03-23T11:01:18;101338.22;;;20.92;44.81
29461;BME280;16428;47.836;35.106;2023-03-23T11:03:48;101332.00;;;21.15;43.81
29461;BME280;16428;47.836;35.106;2023-03-23T11:06:20;101322.13;;;21.14;43.75
29461;BME280;16428;47.836;35.106;2023-03-23T11:08:56;101326.75;;;21.31;43.07
29461;BME280;16428;47.836;35.106;2023-03-23T11:11:31;101326.47;;;21.21;43.23
29461;BME280;16428;47.836;35.106;2023-03-23T11:14:20;101327.06;;;21.76;41.88
29461;BME280;16428;47.836;35.106;2023-03-23T11:16:55;101322.69;;;21.04;43.51
29461;BME280;16428;47.836;35.106;2023-03-23T11:19:29;101323.06;;;20.78;44.70
29461;BME280;16428;47.836;35.106;2023-03-23T11:22:16;101316.66;;;21.14;42.76
29461;BME280;16428;47.836;35.106;2023-03-23T11:24:50;101315.84;;;21.13;42.91
29461;BME280;16428;47.836;35.106;2023-03-23T11:27:19;101309.81;;;21.53;44.32
29461;BME280;16428;47.836;35.106;2023-03-23T11:29:58;101305.00;;;22.13;44.13
29461;BME280;16428;47.836;35.106;2023-03-23T11:32:29;101304.38;;;22.34;44.24
29461;BME280;16428;47.836;35.106;2023-03-23T11:35:01;101300.34;;;22.02;42.34
29461;BME280;16428;47.836;35.106;2023-03-23T11:37:51;101295.19;;;21.59;41.61
29461;BME280;16428;47.836;35.106;2023-03-23T11:40:25;101287.44;;;21.56;41.94
29461;BME280;16428;47.836;35.106;2023-03-23T11:43:09;101289.03;;;21.98;42.65
29461;BME280;16428;47.836;35.106;2023-03-23T11:45:45;101284.53;;;21.81;41.79
29461;BME280;16428;47.836;35.106;2023-03-23T11:48:40;101284.72;;;22.37;42.64
29461;BME280;16428;47.836;35.106;2023-03-23T11:51:17;101272.06;;;22.60;38.77
29461;BME280;16428;47.836;35.106;2023-03-23T11:53:54;101277.97;;;22.17;39.74
29461;BME280;16428;47.836;35.106;2023-03-23T11:56:30;101273.09;;;22.30;39.12
29461;BME280;16428;47.836;35.106;2023-03-23T11:58:58;101273.44;;;22.74;39.11
29461;BME280;16428;47.836;35.106;2023-03-23T12:04:34;101275.63;;;22.08;39.45
29461;BME280;16428;47.836;35.106;2023-03-23T12:13:25;101265.84;;;21.89;41.24
29461;BME280;16428;47.836;35.106;2023-03-23T12:16:06;101263.84;;;22.60;40.95
29461;BME280;16428;47.836;35.106;2023-03-23T12:24:08;101266.38;;;22.50;39.11
29461;BME280;16428;47.836;35.106;2023-03-23T12:26:56;101266.00;;;22.46;39.77
29461;BME280;16428;47.836;35.106;2023-03-23T12:48:08;101255.25;;;22.96;37.88
29461;BME280;16428;47.836;35.106;2023-03-23T12:50:45;101255.09;;;22.86;37.72
29461;BME280;16428;47.836;35.106;2023-03-23T13:01:38;101239.91;;;21.03;40.52
29461;BME280;16428;47.836;35.106;2023-03-23T13:04:26;101244.16;;;20.99;40.96
29461;BME280;16428;47.836;35.106;2023-03-23T13:06:54;101242.50;;;20.68;41.63
29461;BME280;16428;47.836;35.106;2023-03-23T13:09:58;101246.59;;;20.78;41.51
29461;BME280;16428;47.836;35.106;2023-03-23T13:12:33;101245.41;;;20.55;42.12
29461;BME280;16428;47.836;35.106;2023-03-23T13:18:17;101242.88;;;20.42;42.23
29461;BME280;16428;47.836;35.106;2023-03-23T13:21:09;101238.06;;;20.01;42.80
29461;BME280;16428;47.836;35.106;2023-03-23T13:23:42;101236.03;;;19.72;43.90
29461;BME280;16428;47.836;35.106;2023-03-23T13:26:13;101241.00;;;19.81;43.61
29461;BME280;16428;47.836;35.106;2023-03-23T13:31:26;101226.94;;;19.84;43.28
29461;BME280;16428;47.836;35.106;2023-03-23T13:34:25;101231.81;;;19.76;43.88
29461;BME280;16428;47.836;35.106;2023-03-23T13:37:06;101226.44;;;19.87;43.57
29461;BME280;16428;47.836;35.106;2023-03-23T13:49:53;101223.25;;;19.47;45.64
29461;BME280;16428;47.836;35.106;2023-03-23T13:57:55;101229.75;;;19.71;44.45
29461;BME280;16428;47.836;35.106;2023-03-23T14:03:12;101234.97;;;19.54;45.20
29461;BME280;16428;47.836;35.106;2023-03-23T14:05:42;101223.06;;;19.42;44.55
29461;BME280;16428;47.836;35.106;2023-03-23T14:10:41;101220.06;;;19.25;45.81
29461;BME280;16428;47.836;35.106;2023-03-23T14:13:21;101216.16;;;19.21;45.11
29461;BME280;16428;47.836;35.106;2023-03-23T14:15:59;101217.84;;;19.16;47.01
29461;BME280;16428;47.836;35.106;2023-03-23T14:18:31;101212.16;;;19.24;45.48
29461;BME280;16428;47.836;35.106;2023-03-23T14:21:04;101213.19;;;19.23;45.37
29461;BME280;16428;47.836;35.106;2023-03-23T14:23:33;101211.16;;;19.12;46.38
29461;BME280;16428;47.836;35.106;2023-03-23T14:26:15;101213.41;;;19.21;46.06
29461;BME280;16428;47.836;35.106;2023-03-23T14:28:45;101217.84;;;19.16;45.98
29461;BME280;16428;47.836;35.106;2023-03-23T14:31:22;101214.25;;;19.22;45.79
29461;BME280;16428;47.836;35.106;2023-03-23T14:33:52;101209.28;;;19.12;45.72
29461;BME280;16428;47.836;35.106;2023-03-23T14:36:25;101214.78;;;19.06;46.13
29461;BME280;16428;47.836;35.106;2023-03-23T14:39:03;101212.31;;;18.97;46.88
29461;BME280;16428;47.836;35.106;2023-03-23T14:41:34;101219.34;;;19.12;45.72
29461;BME280;16428;47.836;35.106;2023-03-23T14:44:03;101214.00;;;18.98;45.70
29461;BME280;16428;47.836;35.106;2023-03-23T14:46:33;101225.06;;;19.04;45.50
29461;BME280;16428;47.836;35.106;2023-03-23T14:49:02;101219.59;;;18.79;47.00
29461;BME280;16428;47.836;35.106;2023-03-23T14:51:30;101228.75;;;18.84;47.17
29461;BME280;16428;47.836;35.106;2023-03-23T14:53:59;101225.41;;;18.82;48.36
29461;BME280;16428;47.836;35.106;2023-03-23T14:56:35;101227.16;;;18.70;47.89